createdAt,value
2022-12-08T00:00:06.556Z,2.72
2022-12-08T00:03:13.522Z,0.70
2022-12-08T00:06:29.296Z,1.35
2022-12-08T00:09:39.222Z,1.10
2022-12-08T00:12:41.060Z,3.70
2022-12-08T00:15:42.510Z,0.60
2022-12-08T00:18:43.966Z,1.55
2022-12-08T00:21:45.437Z,1.38
2022-12-08T00:24:46.923Z,3.00
2022-12-08T00:27:48.416Z,3.80
2022-12-08T00:30:49.997Z,2.65
2022-12-08T00:33:51.428Z,3.53
2022-12-08T00:36:52.847Z,1.63
2022-12-08T00:39:54.676Z,3.83
2022-12-08T00:42:56.474Z,2.05
2022-12-08T00:45:58.012Z,0.65
2022-12-08T00:48:59.578Z,2.45
2022-12-08T00:52:01.421Z,5.00
2022-12-08T00:55:04.556Z,5.10
2022-12-08T00:58:06.059Z,2.53
2022-12-08T01:01:11.779Z,3.55
2022-12-08T01:04:15.252Z,3.47
2022-12-08T01:07:16.985Z,5.97
2022-12-08T01:10:18.468Z,9.20
2022-12-08T01:13:20.120Z,13.93
2022-12-08T01:16:28.698Z,16.52
2022-12-08T01:19:30.300Z,12.18
2022-12-08T01:22:34.011Z,16.92
2022-12-08T01:25:35.443Z,17.95
2022-12-08T01:28:37.204Z,16.13
2022-12-08T01:31:39.186Z,13.85
2022-12-08T01:34:40.682Z,12.63
2022-12-08T01:37:42.149Z,13.43
2022-12-08T01:40:43.708Z,20.48
2022-12-08T01:44:07.935Z,10.30
2022-12-08T01:47:09.699Z,13.05
2022-12-08T01:50:13.447Z,10.18
2022-12-08T01:53:20.139Z,9.52
2022-12-08T01:56:55.489Z,5.95
2022-12-08T02:00:03.965Z,3.08
2022-12-08T02:03:14.428Z,2.78
2022-12-08T02:06:17.080Z,6.32
2022-12-08T02:09:20.044Z,5.13
2022-12-08T02:12:21.600Z,3.60
2022-12-08T02:15:41.462Z,4.78
2022-12-08T02:19:29.188Z,2.30
2022-12-08T02:22:48.420Z,10.82
2022-12-08T02:26:11.504Z,2.40
2022-12-08T02:29:44.927Z,3.30
2022-12-08T02:33:07.631Z,0.95
2022-12-08T02:36:40.418Z,5.57
2022-12-08T02:39:56.608Z,2.10
2022-12-08T02:43:03.572Z,3.13
2022-12-08T02:46:40.048Z,4.97
2022-12-08T02:49:41.764Z,5.65
2022-12-08T02:52:46.097Z,7.38
2022-12-08T02:56:06.316Z,14.55
2022-12-08T02:59:31.657Z,6.10
2022-12-08T03:02:36.054Z,7.13
2022-12-08T03:06:12.754Z,8.48
2022-12-08T03:09:28.857Z,8.50
2022-12-08T03:12:43.794Z,5.38
2022-12-08T03:15:48.587Z,3.88
2022-12-08T03:18:56.252Z,7.35
2022-12-08T03:22:00.121Z,8.15
2022-12-08T03:25:02.023Z,2.80
2022-12-08T03:28:05.067Z,5.53
2022-12-08T03:31:12.051Z,1.08
2022-12-08T03:34:14.664Z,2.65
2022-12-08T03:37:17.100Z,2.50
2022-12-08T03:40:20.547Z,1.23
2022-12-08T03:43:22.017Z,3.22
2022-12-08T03:49:26.223Z,6.15
2022-12-08T03:52:27.679Z,3.58
2022-12-08T03:55:29.106Z,2.78
2022-12-08T03:58:35.802Z,8.38
2022-12-08T04:01:38.788Z,4.63
2022-12-08T04:04:40.625Z,1.45
2022-12-08T04:07:42.166Z,6.80
2022-12-08T04:10:43.667Z,4.32
2022-12-08T04:13:45.598Z,3.95
2022-12-08T04:16:47.083Z,1.48
2022-12-08T04:19:48.564Z,5.30
2022-12-08T04:22:49.998Z,3.08
2022-12-08T04:25:52.424Z,3.80
2022-12-08T04:28:53.952Z,3.20
2022-12-08T04:31:55.508Z,3.67
2022-12-08T04:34:57.026Z,2.17
2022-12-08T04:37:58.673Z,1.45
2022-12-08T04:41:00.636Z,3.05
2022-12-08T04:44:02.176Z,0.88
2022-12-08T04:47:03.712Z,0.38
2022-12-08T04:50:06.658Z,0.60
2022-12-08T04:53:09.243Z,0.93
2022-12-08T04:56:17.287Z,2.60
2022-12-08T04:59:18.717Z,4.07
2022-12-08T05:02:20.250Z,5.22
2022-12-08T05:05:21.820Z,4.05
2022-12-08T05:08:23.365Z,2.20
2022-12-08T05:11:24.843Z,1.90
2022-12-08T05:14:26.378Z,4.22
2022-12-08T05:17:28.007Z,4.15
2022-12-08T05:20:29.464Z,3.75
2022-12-08T05:23:31.144Z,7.38
2022-12-08T05:26:32.583Z,5.28
2022-12-08T05:29:34.080Z,1.80
2022-12-08T05:32:35.547Z,1.48
2022-12-08T05:35:37.161Z,0.73
2022-12-08T05:38:39.351Z,1.85
2022-12-08T05:41:41.444Z,1.27
2022-12-08T05:44:42.885Z,0.77
2022-12-08T05:47:44.344Z,1.85
2022-12-08T05:50:47.093Z,4.22
2022-12-08T05:53:50.887Z,4.15
2022-12-08T05:56:52.311Z,0.65
2022-12-08T05:59:53.746Z,1.30
2022-12-08T06:02:55.243Z,2.35
2022-12-08T06:05:56.861Z,5.32
2022-12-08T06:08:58.635Z,0.88
2022-12-08T06:12:00.948Z,0.63
2022-12-08T06:15:02.420Z,3.15
2022-12-08T06:18:04.760Z,0.77
2022-12-08T06:21:08.796Z,6.32
2022-12-08T06:24:10.209Z,3.17
2022-12-08T06:27:11.629Z,0.70
2022-12-08T06:30:13.492Z,0.95
2022-12-08T06:33:14.941Z,1.58
2022-12-08T06:36:18.848Z,0.63
2022-12-08T06:39:20.268Z,1.25
2022-12-08T06:42:21.735Z,2.88
2022-12-08T06:45:23.291Z,1.35
2022-12-08T06:48:25.648Z,0.50
2022-12-08T06:51:27.352Z,0.65
2022-12-08T06:54:28.967Z,0.70
2022-12-08T06:57:33.923Z,2.00
2022-12-08T07:00:38.247Z,2.33
2022-12-08T07:03:41.033Z,0.80
2022-12-08T07:06:42.622Z,3.30
2022-12-08T07:09:44.182Z,1.33
2022-12-08T07:12:45.776Z,5.55
2022-12-08T07:15:47.246Z,1.33
2022-12-08T07:18:49.096Z,8.30
2022-12-08T07:21:50.581Z,4.18
2022-12-08T07:24:52.014Z,2.83
2022-12-08T07:27:53.520Z,3.30
2022-12-08T07:30:55.016Z,2.22
2022-12-08T07:33:57.426Z,5.57
2022-12-08T07:36:58.925Z,2.50
2022-12-08T07:40:00.451Z,3.00
2022-12-08T07:43:01.933Z,5.07
2022-12-08T07:46:03.494Z,2.63
2022-12-08T07:49:05.257Z,4.80
2022-12-08T07:52:06.782Z,2.53
2022-12-08T07:55:08.905Z,2.65
2022-12-08T07:58:11.421Z,3.13
2022-12-08T08:01:22.849Z,1.35
2022-12-08T08:04:24.507Z,3.53
2022-12-08T08:07:26.271Z,4.78
2022-12-08T08:10:28.062Z,3.05
2022-12-08T08:13:29.536Z,3.38
2022-12-08T08:16:36.559Z,5.70
2022-12-08T08:19:39.769Z,3.30
2022-12-08T08:22:41.197Z,2.63
2022-12-08T08:25:42.682Z,2.20
2022-12-08T08:28:44.200Z,2.95
2022-12-08T08:31:45.627Z,4.10
2022-12-08T08:34:47.096Z,1.35
2022-12-08T08:37:49.421Z,1.70
2022-12-08T08:40:51.228Z,3.17
2022-12-08T08:43:54.347Z,5.18
2022-12-08T08:46:55.901Z,4.72
2022-12-08T08:49:57.403Z,3.80
2022-12-08T08:52:58.814Z,6.45
2022-12-08T08:56:02.695Z,8.88
2022-12-08T09:02:16.376Z,7.00
2022-12-08T09:05:18.278Z,6.95
2022-12-08T09:08:20.155Z,5.15
2022-12-08T09:11:29.970Z,4.15
2022-12-08T09:14:31.820Z,6.25
2022-12-08T09:17:33.299Z,4.22
2022-12-08T09:20:35.200Z,7.13
2022-12-08T09:23:40.055Z,5.45
2022-12-08T09:26:43.323Z,8.32
2022-12-08T09:29:44.867Z,4.20
2022-12-08T09:32:46.459Z,3.92
2022-12-08T09:35:47.926Z,5.20
2022-12-08T09:38:52.960Z,5.45
2022-12-08T09:42:18.781Z,3.50
2022-12-08T09:45:22.948Z,1.90
2022-12-08T09:48:32.719Z,3.42
2022-12-08T09:51:41.566Z,0.85
2022-12-08T09:54:43.403Z,1.13
2022-12-08T09:58:02.776Z,2.75
2022-12-08T10:01:10.602Z,1.60
2022-12-08T10:04:36.073Z,1.40
2022-12-08T10:08:14.287Z,4.75
2022-12-08T10:11:47.123Z,4.53
2022-12-08T10:15:35.828Z,2.33
2022-12-08T10:18:37.963Z,4.40
2022-12-08T10:21:40.534Z,2.63
2022-12-08T10:25:01.401Z,4.43
2022-12-08T10:28:03.583Z,3.17
2022-12-08T10:31:06.313Z,3.90
2022-12-08T10:34:17.739Z,3.95
2022-12-08T10:37:19.458Z,4.78
2022-12-08T10:40:21.856Z,4.03
2022-12-08T10:43:27.983Z,4.97
2022-12-08T10:46:32.813Z,4.65
2022-12-08T10:49:35.138Z,2.60
2022-12-08T10:52:41.378Z,7.30
2022-12-08T10:55:49.590Z,3.03
2022-12-08T10:59:12.328Z,3.08
2022-12-08T11:02:19.735Z,4.03
2022-12-08T11:05:23.434Z,3.83
2022-12-08T11:08:27.877Z,3.15
2022-12-08T11:11:58.918Z,5.35
2022-12-08T11:15:02.303Z,6.00
2022-12-08T11:18:22.501Z,4.50
2022-12-08T11:21:38.365Z,3.33
2022-12-08T11:24:45.272Z,2.85
2022-12-08T11:27:51.530Z,2.72
2022-12-08T11:31:04.376Z,5.43
2022-12-08T11:34:06.657Z,3.75
2022-12-08T11:37:21.831Z,3.38
2022-12-08T11:40:36.295Z,2.28
2022-12-08T11:43:50.497Z,5.53
2022-12-08T11:46:56.799Z,2.65
2022-12-08T11:50:32.036Z,6.35
2022-12-08T11:54:10.833Z,4.55
2022-12-08T11:57:13.950Z,2.47
2022-12-08T12:00:18.555Z,3.83
2022-12-08T12:03:30.706Z,2.63
2022-12-08T12:07:00.862Z,2.88
2022-12-08T12:10:41.683Z,3.90
2022-12-08T12:14:08.679Z,4.97
2022-12-08T12:17:29.404Z,4.25
2022-12-08T12:20:35.700Z,3.33
2022-12-08T12:23:48.721Z,3.45
2022-12-08T12:27:05.095Z,2.88
2022-12-08T12:30:27.820Z,1.13
2022-12-08T12:33:33.630Z,1.75
2022-12-08T12:36:51.902Z,2.45
2022-12-08T12:39:53.281Z,1.10
2022-12-08T12:42:57.138Z,0.98
2022-12-08T12:46:23.564Z,1.95
2022-12-08T12:49:40.317Z,1.85
2022-12-08T12:52:42.682Z,2.22
2022-12-08T12:55:56.839Z,1.70
2022-12-08T12:59:37.494Z,1.65
2022-12-08T13:02:43.468Z,1.58
2022-12-08T13:05:56.240Z,3.05
2022-12-08T13:08:59.475Z,2.42
2022-12-08T13:12:09.516Z,1.10
2022-12-08T13:15:23.554Z,1.77
2022-12-08T13:18:48.317Z,5.10
2022-12-08T13:24:51.682Z,2.70
2022-12-08T13:27:54.374Z,4.43
2022-12-08T13:30:58.321Z,2.55
2022-12-08T13:34:00.125Z,3.63
2022-12-08T13:37:10.586Z,4.43
2022-12-08T13:40:23.926Z,3.78
2022-12-08T13:44:05.272Z,3.17
2022-12-08T13:47:33.476Z,3.13
2022-12-08T13:57:49.510Z,4.43
2022-12-08T14:00:57.804Z,4.30
2022-12-08T14:07:21.431Z,3.45
2022-12-08T14:10:29.405Z,4.70
2022-12-08T14:13:33.008Z,4.93
2022-12-08T14:16:43.658Z,5.50
2022-12-08T14:19:53.787Z,6.53
2022-12-08T14:22:55.894Z,7.38
2022-12-08T14:25:57.460Z,3.72
2022-12-08T14:28:59.331Z,5.20
2022-12-08T14:32:00.790Z,6.72
2022-12-08T14:35:19.003Z,5.18
2022-12-08T14:38:22.584Z,5.00
2022-12-08T14:41:32.541Z,5.78
2022-12-08T14:44:38.619Z,6.35
2022-12-08T14:47:40.479Z,4.80
2022-12-08T14:50:54.101Z,6.75
2022-12-08T14:53:58.173Z,6.13
2022-12-08T15:00:08.475Z,9.20
2022-12-08T15:03:13.235Z,5.30
2022-12-08T15:06:15.117Z,6.65
2022-12-08T15:09:28.221Z,4.43
2022-12-08T15:12:29.901Z,4.88
2022-12-08T15:15:45.362Z,4.18
2022-12-08T15:19:01.348Z,6.43
2022-12-08T15:22:17.420Z,4.75
2022-12-08T15:25:18.999Z,5.50
2022-12-08T15:28:29.271Z,4.13
2022-12-08T15:31:31.379Z,4.43
2022-12-08T15:34:32.871Z,6.90
2022-12-08T15:37:34.324Z,7.93
2022-12-08T15:40:35.796Z,5.75
2022-12-08T15:43:37.325Z,5.82
2022-12-08T15:46:38.780Z,6.25
2022-12-08T15:49:40.266Z,8.38
2022-12-08T15:52:42.191Z,9.55
2022-12-08T15:55:58.071Z,9.30
2022-12-08T15:59:05.723Z,10.93
2022-12-08T16:02:12.293Z,8.65
2022-12-08T16:08:49.700Z,10.23
2022-12-08T16:12:06.618Z,16.15
2022-12-08T16:18:36.364Z,8.65
2022-12-08T16:22:29.754Z,14.60
2022-12-08T16:25:14.722Z,9.13
2022-12-08T16:28:52.220Z,8.23
2022-12-08T16:31:41.007Z,8.13
2022-12-08T16:34:43.476Z,9.43
2022-12-08T16:37:44.999Z,7.28
2022-12-08T16:40:47.284Z,11.90
2022-12-08T16:43:48.695Z,12.35
2022-12-08T16:46:50.136Z,10.98
2022-12-08T16:49:51.566Z,15.75
2022-12-08T16:52:58.496Z,12.15
2022-12-08T16:56:00.018Z,11.63
2022-12-08T16:59:02.063Z,11.05
2022-12-08T17:02:04.105Z,17.35
2022-12-08T17:05:06.463Z,11.18
2022-12-08T17:08:08.399Z,11.82
2022-12-08T17:11:10.612Z,16.70
2022-12-08T17:14:14.197Z,11.48
2022-12-08T17:17:15.721Z,13.80
2022-12-08T17:20:20.137Z,12.70
2022-12-08T17:23:21.540Z,15.55
2022-12-08T17:26:22.998Z,13.93
2022-12-08T17:29:24.751Z,14.80
2022-12-08T17:32:26.396Z,17.88
2022-12-08T17:35:27.956Z,12.27
2022-12-08T17:38:29.431Z,15.73
2022-12-08T17:41:31.710Z,14.75
2022-12-08T17:44:34.258Z,15.38
2022-12-08T17:47:36.475Z,11.95
2022-12-08T17:50:39.712Z,14.85
2022-12-08T17:53:41.368Z,9.20
2022-12-08T17:56:43.889Z,13.30
2022-12-08T17:59:45.410Z,9.20
2022-12-08T18:02:46.870Z,9.43
2022-12-08T18:05:48.315Z,14.45
2022-12-08T18:08:49.765Z,16.08
2022-12-08T18:11:51.219Z,12.57
2022-12-08T18:14:52.675Z,9.27
2022-12-08T18:17:54.584Z,10.38
2022-12-08T18:20:55.996Z,14.18
2022-12-08T18:23:57.510Z,12.63
2022-12-08T18:26:59.009Z,12.73
2022-12-08T18:30:00.923Z,11.32
2022-12-08T18:33:06.732Z,17.02
2022-12-08T18:36:10.362Z,14.43
2022-12-08T18:39:38.241Z,16.33
2022-12-08T18:42:39.703Z,14.75
2022-12-08T18:45:41.314Z,17.15
2022-12-08T18:48:46.595Z,17.85
2022-12-08T18:55:05.803Z,17.17
2022-12-08T18:58:08.140Z,13.98
2022-12-08T19:01:13.856Z,20.35
2022-12-08T19:04:33.650Z,18.92
2022-12-08T19:07:37.056Z,18.27
2022-12-08T19:10:38.574Z,23.02
2022-12-08T19:13:40.030Z,27.40
2022-12-08T19:16:41.481Z,22.83
2022-12-08T19:19:43.010Z,29.75
2022-12-08T19:22:44.429Z,23.27
2022-12-08T19:25:45.951Z,19.58
2022-12-08T19:28:47.598Z,16.35
2022-12-08T19:31:49.196Z,15.95
2022-12-08T19:34:50.744Z,19.90
2022-12-08T19:37:52.182Z,17.13
2022-12-08T19:40:53.659Z,19.77
2022-12-08T19:43:55.097Z,17.02
2022-12-08T19:46:56.707Z,17.52
2022-12-08T19:49:58.375Z,19.30
2022-12-08T19:53:00.833Z,17.15
2022-12-08T19:56:02.672Z,18.17
2022-12-08T19:59:04.322Z,17.33
2022-12-08T20:02:06.436Z,16.83
2022-12-08T20:05:09.237Z,17.40
2022-12-08T20:08:10.889Z,20.23
2022-12-08T20:11:12.392Z,20.75
2022-12-08T20:14:14.138Z,22.90
2022-12-08T20:17:15.565Z,21.25
2022-12-08T20:20:17.014Z,30.02
2022-12-08T20:23:18.584Z,27.38
2022-12-08T20:26:21.824Z,29.45
2022-12-08T20:29:23.328Z,39.57
2022-12-08T20:32:24.807Z,39.90
2022-12-08T20:35:26.382Z,85.85
2022-12-08T20:38:29.162Z,44.28
2022-12-08T20:41:34.842Z,45.72
2022-12-08T20:44:39.220Z,49.15
2022-12-08T20:47:40.693Z,60.53
2022-12-08T20:50:42.308Z,46.17
2022-12-08T20:53:44.413Z,50.72
2022-12-08T20:56:48.526Z,47.67
2022-12-08T20:59:50.621Z,53.83
2022-12-08T21:02:56.488Z,50.25
2022-12-08T21:05:58.773Z,61.33
2022-12-08T21:09:19.170Z,78.75
2022-12-08T21:12:20.994Z,73.63
2022-12-08T21:15:22.756Z,78.53
2022-12-08T21:18:24.526Z,64.93
2022-12-08T21:21:26.223Z,73.65
2022-12-08T21:24:33.660Z,62.58
2022-12-08T21:27:37.243Z,55.80
2022-12-08T21:30:40.210Z,44.97
2022-12-08T21:33:42.166Z,42.83
2022-12-08T21:36:44.001Z,43.88
2022-12-08T21:39:45.647Z,45.42
2022-12-08T21:42:47.313Z,44.78
2022-12-08T21:45:48.821Z,49.33
2022-12-08T21:48:50.592Z,41.03
2022-12-08T21:51:52.240Z,42.97
2022-12-08T21:54:53.904Z,40.88
2022-12-08T21:57:55.423Z,39.55
2022-12-08T22:00:57.384Z,50.15
2022-12-08T22:03:59.044Z,45.65
2022-12-08T22:07:00.646Z,44.90
2022-12-08T22:10:02.266Z,46.83
2022-12-08T22:13:03.987Z,58.72
2022-12-08T22:16:08.649Z,52.35
2022-12-08T22:19:10.373Z,53.47
2022-12-08T22:22:12.125Z,81.72
2022-12-08T22:25:13.735Z,111.63
2022-12-08T22:28:15.216Z,84.88
2022-12-08T22:31:20.279Z,70.57
2022-12-08T22:34:21.965Z,82.68
2022-12-08T22:37:23.731Z,63.00
2022-12-08T22:40:25.195Z,68.10
2022-12-08T22:43:28.137Z,79.03
2022-12-08T22:46:29.906Z,54.45
2022-12-08T22:49:31.398Z,101.20
2022-12-08T22:52:32.878Z,106.15
2022-12-08T22:55:34.391Z,72.22
2022-12-08T22:58:36.553Z,68.55
2022-12-08T23:01:37.976Z,97.88
2022-12-08T23:04:39.585Z,67.43
2022-12-08T23:07:41.333Z,56.63
2022-12-08T23:10:45.024Z,64.88
2022-12-08T23:13:47.147Z,63.72
2022-12-08T23:16:48.778Z,73.05
2022-12-08T23:19:50.501Z,69.93
2022-12-08T23:22:52.092Z,68.35
2022-12-08T23:25:53.511Z,68.10
2022-12-08T23:28:56.417Z,66.30
2022-12-08T23:31:57.982Z,68.75
2022-12-08T23:34:59.545Z,65.40
2022-12-08T23:38:01.229Z,61.20
2022-12-08T23:41:05.395Z,61.53
2022-12-08T23:44:07.155Z,67.85
2022-12-08T23:47:09.003Z,68.70
2022-12-08T23:50:11.330Z,64.72
2022-12-08T23:53:13.086Z,75.55
2022-12-08T23:56:16.818Z,126.65
2022-12-08T23:59:18.401Z,120.40
